sensor_id;sensor_type;location;lat;lon;timestamp;P1;durP1;ratioP1;P2;durP2;ratioP2
14984;SDS011;7588;62.368;25.902;2023-06-14T00:01:01;7.13;;;4.60;;
14984;SDS011;7588;62.368;25.902;2023-06-14T00:03:28;4.70;;;4.23;;
14984;SDS011;7588;62.368;25.902;2023-06-14T00:05:54;5.57;;;4.60;;
14984;SDS011;7588;62.368;25.902;2023-06-14T00:08:20;7.53;;;4.60;;
14984;SDS011;7588;62.368;25.902;2023-06-14T00:10:47;6.80;;;4.07;;
14984;SDS011;7588;62.368;25.902;2023-06-14T00:13:13;5.40;;;4.27;;
14984;SDS011;7588;62.368;25.902;2023-06-14T00:15:39;5.10;;;4.10;;
14984;SDS011;7588;62.368;25.902;2023-06-14T00:18:05;4.40;;;4.10;;
14984;SDS011;7588;62.368;25.902;2023-06-14T00:20:32;7.40;;;4.20;;
14984;SDS011;7588;62.368;25.902;2023-06-14T00:23:01;5.47;;;4.07;;
14984;SDS011;7588;62.368;25.902;2023-06-14T00:25:27;5.87;;;4.40;;
14984;SDS011;7588;62.368;25.902;2023-06-14T00:27:53;7.10;;;4.43;;
14984;SDS011;7588;62.368;25.902;2023-06-14T00:30:22;6.23;;;4.67;;
14984;SDS011;7588;62.368;25.902;2023-06-14T00:32:48;5.43;;;4.57;;
14984;SDS011;7588;62.368;25.902;2023-06-14T00:35:16;7.83;;;4.40;;
14984;SDS011;7588;62.368;25.902;2023-06-14T00:37:41;6.10;;;4.60;;
14984;SDS011;7588;62.368;25.902;2023-06-14T00:40:07;5.30;;;4.13;;
14984;SDS011;7588;62.368;25.902;2023-06-14T00:42:33;9.07;;;4.60;;
14984;SDS011;7588;62.368;25.902;2023-06-14T00:44:59;8.30;;;5.10;;
14984;SDS011;7588;62.368;25.902;2023-06-14T00:47:25;5.00;;;4.50;;
14984;SDS011;7588;62.368;25.902;2023-06-14T00:49:51;7.40;;;4.60;;
14984;SDS011;7588;62.368;25.902;2023-06-14T00:52:18;5.37;;;4.83;;
14984;SDS011;7588;62.368;25.902;2023-06-14T00:54:45;9.37;;;5.43;;
14984;SDS011;7588;62.368;25.902;2023-06-14T00:57:11;5.67;;;4.50;;
14984;SDS011;7588;62.368;25.902;2023-06-14T00:59:38;7.60;;;5.43;;
14984;SDS011;7588;62.368;25.902;2023-06-14T01:02:11;6.80;;;5.20;;
14984;SDS011;7588;62.368;25.902;2023-06-14T01:04:37;7.97;;;5.30;;
14984;SDS011;7588;62.368;25.902;2023-06-14T01:07:15;6.13;;;4.83;;
14984;SDS011;7588;62.368;25.902;2023-06-14T01:09:57;6.43;;;4.70;;
14984;SDS011;7588;62.368;25.902;2023-06-14T01:15:37;5.37;;;4.57;;
14984;SDS011;7588;62.368;25.902;2023-06-14T01:18:04;6.77;;;4.80;;
14984;SDS011;7588;62.368;25.902;2023-06-14T01:20:34;5.83;;;4.63;;
14984;SDS011;7588;62.368;25.902;2023-06-14T01:23:02;5.87;;;4.90;;
14984;SDS011;7588;62.368;25.902;2023-06-14T01:25:28;5.53;;;4.93;;
14984;SDS011;7588;62.368;25.902;2023-06-14T01:28:01;5.27;;;4.63;;
14984;SDS011;7588;62.368;25.902;2023-06-14T01:30:35;8.03;;;5.00;;
14984;SDS011;7588;62.368;25.902;2023-06-14T01:33:03;6.13;;;5.30;;
14984;SDS011;7588;62.368;25.902;2023-06-14T01:35:30;6.73;;;4.90;;
14984;SDS011;7588;62.368;25.902;2023-06-14T01:37:56;7.20;;;5.77;;
14984;SDS011;7588;62.368;25.902;2023-06-14T01:40:23;8.77;;;5.03;;
14984;SDS011;7588;62.368;25.902;2023-06-14T01:42:50;7.20;;;4.87;;
14984;SDS011;7588;62.368;25.902;2023-06-14T01:45:16;8.13;;;5.00;;
14984;SDS011;7588;62.368;25.902;2023-06-14T01:47:43;9.40;;;5.53;;
14984;SDS011;7588;62.368;25.902;2023-06-14T01:50:10;6.43;;;5.30;;
14984;SDS011;7588;62.368;25.902;2023-06-14T01:52:37;9.07;;;5.07;;
14984;SDS011;7588;62.368;25.902;2023-06-14T01:55:04;5.93;;;5.17;;
14984;SDS011;7588;62.368;25.902;2023-06-14T01:57:31;7.10;;;5.33;;
14984;SDS011;7588;62.368;25.902;2023-06-14T01:59:57;6.80;;;5.40;;
14984;SDS011;7588;62.368;25.902;2023-06-14T02:02:22;5.60;;;4.83;;
14984;SDS011;7588;62.368;25.902;2023-06-14T02:04:48;7.90;;;5.23;;
14984;SDS011;7588;62.368;25.902;2023-06-14T02:07:13;7.93;;;5.87;;
14984;SDS011;7588;62.368;25.902;2023-06-14T02:09:40;6.50;;;5.37;;
14984;SDS011;7588;62.368;25.902;2023-06-14T02:12:06;6.80;;;4.43;;
14984;SDS011;7588;62.368;25.902;2023-06-14T02:14:33;7.10;;;5.13;;
14984;SDS011;7588;62.368;25.902;2023-06-14T02:16:58;7.83;;;5.20;;
14984;SDS011;7588;62.368;25.902;2023-06-14T02:19:26;5.83;;;5.23;;
14984;SDS011;7588;62.368;25.902;2023-06-14T02:21:51;7.17;;;5.27;;
14984;SDS011;7588;62.368;25.902;2023-06-14T02:24:17;7.10;;;5.30;;
14984;SDS011;7588;62.368;25.902;2023-06-14T02:26:43;6.57;;;5.30;;
14984;SDS011;7588;62.368;25.902;2023-06-14T02:29:09;5.90;;;5.13;;
14984;SDS011;7588;62.368;25.902;2023-06-14T02:31:37;6.93;;;5.27;;
14984;SDS011;7588;62.368;25.902;2023-06-14T02:34:04;7.50;;;5.30;;
14984;SDS011;7588;62.368;25.902;2023-06-14T02:36:30;8.33;;;5.70;;
14984;SDS011;7588;62.368;25.902;2023-06-14T02:38:56;6.77;;;5.33;;
14984;SDS011;7588;62.368;25.902;2023-06-14T02:41:25;9.63;;;5.53;;
14984;SDS011;7588;62.368;25.902;2023-06-14T02:43:51;8.37;;;4.80;;
14984;SDS011;7588;62.368;25.902;2023-06-14T02:46:17;7.63;;;5.60;;
14984;SDS011;7588;62.368;25.902;2023-06-14T02:48:43;7.17;;;5.50;;
14984;SDS011;7588;62.368;25.902;2023-06-14T02:51:09;6.97;;;5.33;;
14984;SDS011;7588;62.368;25.902;2023-06-14T02:53:35;7.73;;;5.67;;
14984;SDS011;7588;62.368;25.902;2023-06-14T02:56:01;7.33;;;5.37;;
14984;SDS011;7588;62.368;25.902;2023-06-14T02:58:29;6.33;;;5.10;;
14984;SDS011;7588;62.368;25.902;2023-06-14T03:00:55;6.87;;;4.83;;
14984;SDS011;7588;62.368;25.902;2023-06-14T03:03:20;12.13;;;5.63;;
14984;SDS011;7588;62.368;25.902;2023-06-14T03:05:49;7.73;;;5.20;;
14984;SDS011;7588;62.368;25.902;2023-06-14T03:08:16;5.77;;;5.10;;
14984;SDS011;7588;62.368;25.902;2023-06-14T03:10:44;6.13;;;4.97;;
14984;SDS011;7588;62.368;25.902;2023-06-14T03:13:11;6.70;;;4.93;;
14984;SDS011;7588;62.368;25.902;2023-06-14T03:15:37;7.20;;;5.00;;
14984;SDS011;7588;62.368;25.902;2023-06-14T03:18:03;7.77;;;5.50;;
14984;SDS011;7588;62.368;25.902;2023-06-14T03:20:29;7.60;;;5.17;;
14984;SDS011;7588;62.368;25.902;2023-06-14T03:23:01;6.50;;;5.63;;
14984;SDS011;7588;62.368;25.902;2023-06-14T03:25:27;8.50;;;5.47;;
14984;SDS011;7588;62.368;25.902;2023-06-14T03:27:54;7.17;;;5.70;;
14984;SDS011;7588;62.368;25.902;2023-06-14T03:30:21;7.47;;;5.63;;
14984;SDS011;7588;62.368;25.902;2023-06-14T03:32:47;11.00;;;5.67;;
14984;SDS011;7588;62.368;25.902;2023-06-14T03:35:12;8.80;;;5.67;;
14984;SDS011;7588;62.368;25.902;2023-06-14T03:37:42;8.07;;;5.30;;
14984;SDS011;7588;62.368;25.902;2023-06-14T03:40:09;9.57;;;5.80;;
14984;SDS011;7588;62.368;25.902;2023-06-14T03:42:36;8.00;;;5.67;;
14984;SDS011;7588;62.368;25.902;2023-06-14T03:45:02;8.67;;;5.47;;
14984;SDS011;7588;62.368;25.902;2023-06-14T03:47:27;7.97;;;5.53;;
14984;SDS011;7588;62.368;25.902;2023-06-14T03:49:53;10.23;;;5.27;;
14984;SDS011;7588;62.368;25.902;2023-06-14T03:52:19;8.60;;;4.73;;
14984;SDS011;7588;62.368;25.902;2023-06-14T03:54:47;5.73;;;4.83;;
14984;SDS011;7588;62.368;25.902;2023-06-14T03:57:12;6.60;;;4.90;;
14984;SDS011;7588;62.368;25.902;2023-06-14T03:59:38;5.57;;;3.97;;
14984;SDS011;7588;62.368;25.902;2023-06-14T04:02:04;8.37;;;3.93;;
14984;SDS011;7588;62.368;25.902;2023-06-14T04:04:30;6.50;;;3.57;;
14984;SDS011;7588;62.368;25.902;2023-06-14T04:06:56;5.63;;;3.53;;
14984;SDS011;7588;62.368;25.902;2023-06-14T04:09:23;6.20;;;3.80;;
14984;SDS011;7588;62.368;25.902;2023-06-14T04:11:52;4.83;;;3.60;;
14984;SDS011;7588;62.368;25.902;2023-06-14T04:14:19;4.67;;;3.47;;
14984;SDS011;7588;62.368;25.902;2023-06-14T04:16:45;4.30;;;3.55;;
14984;SDS011;7588;62.368;25.902;2023-06-14T04:19:12;4.30;;;3.55;;
14984;SDS011;7588;62.368;25.902;2023-06-14T04:21:37;3.55;;;3.13;;
14984;SDS011;7588;62.368;25.902;2023-06-14T04:24:03;5.43;;;3.85;;
14984;SDS011;7588;62.368;25.902;2023-06-14T04:26:29;5.20;;;3.55;;
14984;SDS011;7588;62.368;25.902;2023-06-14T04:28:58;4.80;;;3.22;;
14984;SDS011;7588;62.368;25.902;2023-06-14T04:31:28;4.50;;;3.20;;
14984;SDS011;7588;62.368;25.902;2023-06-14T04:33:55;5.60;;;3.70;;
14984;SDS011;7588;62.368;25.902;2023-06-14T04:36:21;3.85;;;3.40;;
14984;SDS011;7588;62.368;25.902;2023-06-14T04:38:47;4.75;;;3.30;;
14984;SDS011;7588;62.368;25.902;2023-06-14T04:41:14;4.97;;;3.47;;
14984;SDS011;7588;62.368;25.902;2023-06-14T04:43:41;9.15;;;3.90;;
14984;SDS011;7588;62.368;25.902;2023-06-14T04:46:08;9.38;;;3.60;;
14984;SDS011;7588;62.368;25.902;2023-06-14T04:48:39;4.65;;;3.38;;
14984;SDS011;7588;62.368;25.902;2023-06-14T04:51:06;8.40;;;3.22;;
14984;SDS011;7588;62.368;25.902;2023-06-14T04:53:32;5.80;;;3.40;;
14984;SDS011;7588;62.368;25.902;2023-06-14T04:55:59;3.25;;;2.92;;
14984;SDS011;7588;62.368;25.902;2023-06-14T04:58:26;4.85;;;3.08;;
14984;SDS011;7588;62.368;25.902;2023-06-14T05:00:55;5.50;;;3.17;;
14984;SDS011;7588;62.368;25.902;2023-06-14T05:03:24;4.40;;;2.78;;
14984;SDS011;7588;62.368;25.902;2023-06-14T05:05:51;5.03;;;3.13;;
14984;SDS011;7588;62.368;25.902;2023-06-14T05:08:20;5.97;;;3.20;;
14984;SDS011;7588;62.368;25.902;2023-06-14T05:10:48;5.78;;;3.60;;
14984;SDS011;7588;62.368;25.902;2023-06-14T05:13:14;3.47;;;3.17;;
14984;SDS011;7588;62.368;25.902;2023-06-14T05:15:40;4.72;;;3.22;;
14984;SDS011;7588;62.368;25.902;2023-06-14T05:18:06;3.20;;;2.90;;
14984;SDS011;7588;62.368;25.902;2023-06-14T05:20:34;4.93;;;2.90;;
14984;SDS011;7588;62.368;25.902;2023-06-14T05:23:02;10.57;;;3.88;;
14984;SDS011;7588;62.368;25.902;2023-06-14T05:25:27;8.63;;;3.55;;
14984;SDS011;7588;62.368;25.902;2023-06-14T05:27:53;5.47;;;3.03;;
14984;SDS011;7588;62.368;25.902;2023-06-14T05:30:19;3.30;;;3.00;;
14984;SDS011;7588;62.368;25.902;2023-06-14T05:32:45;4.95;;;3.13;;
14984;SDS011;7588;62.368;25.902;2023-06-14T05:35:11;4.40;;;2.90;;
14984;SDS011;7588;62.368;25.902;2023-06-14T05:37:37;5.63;;;2.80;;
14984;SDS011;7588;62.368;25.902;2023-06-14T05:40:03;4.57;;;3.30;;
14984;SDS011;7588;62.368;25.902;2023-06-14T05:42:33;4.70;;;3.42;;
14984;SDS011;7588;62.368;25.902;2023-06-14T05:44:59;6.88;;;3.30;;
14984;SDS011;7588;62.368;25.902;2023-06-14T05:47:25;5.07;;;2.90;;
14984;SDS011;7588;62.368;25.902;2023-06-14T05:49:52;5.20;;;3.00;;
14984;SDS011;7588;62.368;25.902;2023-06-14T05:52:20;3.78;;;3.05;;
14984;SDS011;7588;62.368;25.902;2023-06-14T05:54:45;3.55;;;2.60;;
14984;SDS011;7588;62.368;25.902;2023-06-14T05:57:11;4.20;;;3.05;;
14984;SDS011;7588;62.368;25.902;2023-06-14T05:59:37;6.10;;;3.03;;
14984;SDS011;7588;62.368;25.902;2023-06-14T06:02:03;3.90;;;2.83;;
14984;SDS011;7588;62.368;25.902;2023-06-14T06:04:29;3.85;;;3.17;;
14984;SDS011;7588;62.368;25.902;2023-06-14T06:06:54;4.03;;;3.00;;
14984;SDS011;7588;62.368;25.902;2023-06-14T06:09:20;4.43;;;2.90;;
14984;SDS011;7588;62.368;25.902;2023-06-14T06:11:46;3.20;;;2.90;;
14984;SDS011;7588;62.368;25.902;2023-06-14T06:14:11;3.60;;;2.92;;
14984;SDS011;7588;62.368;25.902;2023-06-14T06:16:37;3.30;;;2.83;;
14984;SDS011;7588;62.368;25.902;2023-06-14T06:19:03;3.95;;;2.90;;
14984;SDS011;7588;62.368;25.902;2023-06-14T06:21:28;3.33;;;2.97;;
14984;SDS011;7588;62.368;25.902;2023-06-14T06:23:54;4.57;;;2.85;;
14984;SDS011;7588;62.368;25.902;2023-06-14T06:26:21;3.03;;;2.70;;
14984;SDS011;7588;62.368;25.902;2023-06-14T06:28:47;3.47;;;2.90;;
14984;SDS011;7588;62.368;25.902;2023-06-14T06:31:13;5.60;;;2.80;;
14984;SDS011;7588;62.368;25.902;2023-06-14T06:33:40;5.05;;;3.28;;
14984;SDS011;7588;62.368;25.902;2023-06-14T06:36:05;4.03;;;2.60;;
14984;SDS011;7588;62.368;25.902;2023-06-14T06:38:31;5.18;;;3.10;;
14984;SDS011;7588;62.368;25.902;2023-06-14T06:40:57;3.75;;;3.30;;
14984;SDS011;7588;62.368;25.902;2023-06-14T06:43:23;3.53;;;3.05;;
14984;SDS011;7588;62.368;25.902;2023-06-14T06:45:48;4.32;;;2.75;;
14984;SDS011;7588;62.368;25.902;2023-06-14T06:48:14;3.00;;;2.70;;
14984;SDS011;7588;62.368;25.902;2023-06-14T06:50:41;4.15;;;2.60;;
14984;SDS011;7588;62.368;25.902;2023-06-14T06:53:06;4.22;;;2.88;;
14984;SDS011;7588;62.368;25.902;2023-06-14T06:55:32;2.70;;;2.42;;
14984;SDS011;7588;62.368;25.902;2023-06-14T06:57:57;3.42;;;2.72;;
14984;SDS011;7588;62.368;25.902;2023-06-14T07:00:24;3.92;;;2.45;;
14984;SDS011;7588;62.368;25.902;2023-06-14T07:02:50;4.20;;;3.10;;
14984;SDS011;7588;62.368;25.902;2023-06-14T07:05:17;4.95;;;3.13;;
14984;SDS011;7588;62.368;25.902;2023-06-14T07:07:43;4.10;;;2.92;;
14984;SDS011;7588;62.368;25.902;2023-06-14T07:10:08;3.78;;;3.10;;
14984;SDS011;7588;62.368;25.902;2023-06-14T07:12:35;6.60;;;2.80;;
14984;SDS011;7588;62.368;25.902;2023-06-14T07:15:04;4.45;;;2.33;;
14984;SDS011;7588;62.368;25.902;2023-06-14T07:17:31;4.55;;;2.97;;
14984;SDS011;7588;62.368;25.902;2023-06-14T07:19:57;5.80;;;2.85;;
14984;SDS011;7588;62.368;25.902;2023-06-14T07:22:23;2.70;;;2.50;;
14984;SDS011;7588;62.368;25.902;2023-06-14T07:24:48;7.50;;;3.15;;
14984;SDS011;7588;62.368;25.902;2023-06-14T07:27:14;3.08;;;2.22;;
14984;SDS011;7588;62.368;25.902;2023-06-14T07:29:40;4.93;;;2.50;;
14984;SDS011;7588;62.368;25.902;2023-06-14T07:32:06;4.80;;;2.25;;
14984;SDS011;7588;62.368;25.902;2023-06-14T07:34:32;3.95;;;2.40;;
14984;SDS011;7588;62.368;25.902;2023-06-14T07:36:57;5.10;;;2.50;;
14984;SDS011;7588;62.368;25.902;2023-06-14T07:39:23;2.63;;;2.28;;
14984;SDS011;7588;62.368;25.902;2023-06-14T07:41:49;3.25;;;2.50;;
14984;SDS011;7588;62.368;25.902;2023-06-14T07:44:15;3.97;;;2.63;;
14984;SDS011;7588;62.368;25.902;2023-06-14T07:46:41;2.72;;;2.53;;
14984;SDS011;7588;62.368;25.902;2023-06-14T07:49:07;3.47;;;2.85;;
14984;SDS011;7588;62.368;25.902;2023-06-14T07:51:33;4.50;;;2.80;;
14984;SDS011;7588;62.368;25.902;2023-06-14T07:54:01;3.67;;;2.28;;
14984;SDS011;7588;62.368;25.902;2023-06-14T07:56:28;3.20;;;2.50;;
14984;SDS011;7588;62.368;25.902;2023-06-14T07:58:54;3.55;;;2.25;;
14984;SDS011;7588;62.368;25.902;2023-06-14T08:01:19;4.00;;;2.42;;
14984;SDS011;7588;62.368;25.902;2023-06-14T08:03:45;3.25;;;2.40;;
14984;SDS011;7588;62.368;25.902;2023-06-14T08:06:11;4.22;;;2.40;;
14984;SDS011;7588;62.368;25.902;2023-06-14T08:08:37;5.70;;;2.65;;
14984;SDS011;7588;62.368;25.902;2023-06-14T08:11:02;2.75;;;2.45;;
14984;SDS011;7588;62.368;25.902;2023-06-14T08:13:28;3.60;;;2.88;;
14984;SDS011;7588;62.368;25.902;2023-06-14T08:15:54;2.92;;;2.40;;
14984;SDS011;7588;62.368;25.902;2023-06-14T08:18:22;3.97;;;2.80;;
14984;SDS011;7588;62.368;25.902;2023-06-14T08:20:47;2.60;;;2.30;;
14984;SDS011;7588;62.368;25.902;2023-06-14T08:23:13;3.30;;;2.30;;
14984;SDS011;7588;62.368;25.902;2023-06-14T08:25:39;2.78;;;2.13;;
14984;SDS011;7588;62.368;25.902;2023-06-14T08:28:05;4.30;;;2.53;;
14984;SDS011;7588;62.368;25.902;2023-06-14T08:30:31;5.72;;;2.40;;
14984;SDS011;7588;62.368;25.902;2023-06-14T08:32:57;3.28;;;2.55;;
14984;SDS011;7588;62.368;25.902;2023-06-14T08:35:22;3.67;;;2.25;;
14984;SDS011;7588;62.368;25.902;2023-06-14T08:37:49;3.53;;;2.50;;
14984;SDS011;7588;62.368;25.902;2023-06-14T08:40:18;3.25;;;2.58;;
14984;SDS011;7588;62.368;25.902;2023-06-14T08:42:47;8.27;;;3.38;;
14984;SDS011;7588;62.368;25.902;2023-06-14T08:45:16;3.00;;;2.58;;
14984;SDS011;7588;62.368;25.902;2023-06-14T08:47:42;3.63;;;2.70;;
14984;SDS011;7588;62.368;25.902;2023-06-14T08:50:10;3.80;;;2.80;;
14984;SDS011;7588;62.368;25.902;2023-06-14T08:52:37;4.15;;;2.72;;
14984;SDS011;7588;62.368;25.902;2023-06-14T08:55:06;3.03;;;2.50;;
14984;SDS011;7588;62.368;25.902;2023-06-14T08:57:34;7.78;;;2.78;;
14984;SDS011;7588;62.368;25.902;2023-06-14T09:00:03;4.82;;;2.67;;
14984;SDS011;7588;62.368;25.902;2023-06-14T09:02:37;3.50;;;3.05;;
14984;SDS011;7588;62.368;25.902;2023-06-14T09:05:03;3.30;;;2.83;;
14984;SDS011;7588;62.368;25.902;2023-06-14T09:07:29;4.05;;;3.10;;
14984;SDS011;7588;62.368;25.902;2023-06-14T09:10:10;2.95;;;2.55;;
14984;SDS011;7588;62.368;25.902;2023-06-14T09:12:38;3.35;;;2.50;;
14984;SDS011;7588;62.368;25.902;2023-06-14T09:15:07;5.38;;;3.25;;
14984;SDS011;7588;62.368;25.902;2023-06-14T09:17:43;3.70;;;2.50;;
14984;SDS011;7588;62.368;25.902;2023-06-14T09:20:09;3.75;;;2.63;;
14984;SDS011;7588;62.368;25.902;2023-06-14T09:22:36;3.85;;;2.38;;
14984;SDS011;7588;62.368;25.902;2023-06-14T09:25:03;4.15;;;2.88;;
14984;SDS011;7588;62.368;25.902;2023-06-14T09:27:30;4.75;;;2.78;;
14984;SDS011;7588;62.368;25.902;2023-06-14T09:29:56;5.65;;;2.65;;
14984;SDS011;7588;62.368;25.902;2023-06-14T09:32:22;15.85;;;3.67;;
14984;SDS011;7588;62.368;25.902;2023-06-14T09:34:48;3.85;;;2.97;;
14984;SDS011;7588;62.368;25.902;2023-06-14T09:37:30;5.85;;;3.13;;
14984;SDS011;7588;62.368;25.902;2023-06-14T09:39:56;3.92;;;2.92;;
14984;SDS011;7588;62.368;25.902;2023-06-14T09:42:23;6.85;;;3.13;;
14984;SDS011;7588;62.368;25.902;2023-06-14T09:44:53;7.05;;;3.28;;
14984;SDS011;7588;62.368;25.902;2023-06-14T09:47:20;5.22;;;2.83;;
14984;SDS011;7588;62.368;25.902;2023-06-14T09:49:47;4.82;;;3.00;;
14984;SDS011;7588;62.368;25.902;2023-06-14T09:52:14;4.00;;;2.80;;
14984;SDS011;7588;62.368;25.902;2023-06-14T09:54:41;6.63;;;2.83;;
14984;SDS011;7588;62.368;25.902;2023-06-14T09:57:11;3.88;;;2.80;;
14984;SDS011;7588;62.368;25.902;2023-06-14T09:59:41;4.80;;;3.25;;
14984;SDS011;7588;62.368;25.902;2023-06-14T10:02:14;3.92;;;2.80;;
14984;SDS011;7588;62.368;25.902;2023-06-14T10:04:58;5.13;;;3.10;;
14984;SDS011;7588;62.368;25.902;2023-06-14T10:10:18;6.07;;;2.95;;
14984;SDS011;7588;62.368;25.902;2023-06-14T10:12:44;3.95;;;3.10;;
14984;SDS011;7588;62.368;25.902;2023-06-14T10:15:12;3.92;;;3.10;;
14984;SDS011;7588;62.368;25.902;2023-06-14T10:20:28;3.88;;;3.35;;
14984;SDS011;7588;62.368;25.902;2023-06-14T10:23:06;3.47;;;3.15;;
14984;SDS011;7588;62.368;25.902;2023-06-14T10:25:38;4.47;;;3.03;;
14984;SDS011;7588;62.368;25.902;2023-06-14T10:28:16;9.38;;;3.20;;
14984;SDS011;7588;62.368;25.902;2023-06-14T10:33:31;4.43;;;3.20;;
14984;SDS011;7588;62.368;25.902;2023-06-14T10:36:27;5.32;;;3.20;;
14984;SDS011;7588;62.368;25.902;2023-06-14T10:41:27;2.90;;;2.70;;
14984;SDS011;7588;62.368;25.902;2023-06-14T10:46:38;3.05;;;2.50;;
14984;SDS011;7588;62.368;25.902;2023-06-14T10:49:16;7.53;;;3.30;;
14984;SDS011;7588;62.368;25.902;2023-06-14T10:51:46;6.30;;;2.90;;
14984;SDS011;7588;62.368;25.902;2023-06-14T10:54:15;3.90;;;2.70;;
14984;SDS011;7588;62.368;25.902;2023-06-14T10:56:51;5.03;;;2.90;;
14984;SDS011;7588;62.368;25.902;2023-06-14T10:59:18;5.75;;;3.22;;
14984;SDS011;7588;62.368;25.902;2023-06-14T11:04:55;9.48;;;3.47;;
14984;SDS011;7588;62.368;25.902;2023-06-14T11:10:31;3.80;;;2.63;;
14984;SDS011;7588;62.368;25.902;2023-06-14T11:13:02;5.80;;;2.75;;
14984;SDS011;7588;62.368;25.902;2023-06-14T11:15:29;4.60;;;2.85;;
14984;SDS011;7588;62.368;25.902;2023-06-14T11:17:56;3.30;;;2.60;;
14984;SDS011;7588;62.368;25.902;2023-06-14T11:20:26;4.05;;;2.83;;
14984;SDS011;7588;62.368;25.902;2023-06-14T11:22:53;5.03;;;3.15;;
14984;SDS011;7588;62.368;25.902;2023-06-14T11:25:19;5.32;;;3.40;;
14984;SDS011;7588;62.368;25.902;2023-06-14T11:27:45;3.17;;;2.63;;
14984;SDS011;7588;62.368;25.902;2023-06-14T11:30:13;5.78;;;3.10;;
14984;SDS011;7588;62.368;25.902;2023-06-14T11:32:39;6.38;;;2.70;;
14984;SDS011;7588;62.368;25.902;2023-06-14T11:35:06;3.35;;;2.88;;
14984;SDS011;7588;62.368;25.902;2023-06-14T11:37:33;6.35;;;3.17;;
14984;SDS011;7588;62.368;25.902;2023-06-14T11:40:02;6.22;;;3.00;;
14984;SDS011;7588;62.368;25.902;2023-06-14T11:42:36;3.67;;;2.65;;
14984;SDS011;7588;62.368;25.902;2023-06-14T11:45:03;4.00;;;3.10;;
14984;SDS011;7588;62.368;25.902;2023-06-14T11:47:32;6.18;;;2.83;;
14984;SDS011;7588;62.368;25.902;2023-06-14T11:50:02;3.65;;;2.78;;
14984;SDS011;7588;62.368;25.902;2023-06-14T11:52:28;7.68;;;3.78;;
14984;SDS011;7588;62.368;25.902;2023-06-14T11:54:54;4.70;;;2.90;;
14984;SDS011;7588;62.368;25.902;2023-06-14T11:57:24;3.70;;;2.45;;
14984;SDS011;7588;62.368;25.902;2023-06-14T11:59:50;3.10;;;2.80;;
14984;SDS011;7588;62.368;25.902;2023-06-14T12:02:17;3.10;;;2.78;;
14984;SDS011;7588;62.368;25.902;2023-06-14T12:04:44;3.42;;;2.92;;
14984;SDS011;7588;62.368;25.902;2023-06-14T12:07:16;5.13;;;3.03;;
14984;SDS011;7588;62.368;25.902;2023-06-14T12:12:22;4.40;;;3.03;;
14984;SDS011;7588;62.368;25.902;2023-06-14T12:14:48;4.25;;;3.20;;
14984;SDS011;7588;62.368;25.902;2023-06-14T12:17:16;3.70;;;3.13;;
14984;SDS011;7588;62.368;25.902;2023-06-14T12:19:43;3.53;;;2.80;;
14984;SDS011;7588;62.368;25.902;2023-06-14T12:22:10;5.28;;;2.65;;
14984;SDS011;7588;62.368;25.902;2023-06-14T12:24:36;4.78;;;3.03;;
14984;SDS011;7588;62.368;25.902;2023-06-14T12:27:02;3.38;;;3.08;;
14984;SDS011;7588;62.368;25.902;2023-06-14T12:29:29;3.22;;;2.88;;
14984;SDS011;7588;62.368;25.902;2023-06-14T12:31:55;4.50;;;2.97;;
14984;SDS011;7588;62.368;25.902;2023-06-14T12:34:25;3.83;;;2.80;;
14984;SDS011;7588;62.368;25.902;2023-06-14T12:36:52;4.72;;;3.10;;
14984;SDS011;7588;62.368;25.902;2023-06-14T12:39:19;3.72;;;2.75;;
14984;SDS011;7588;62.368;25.902;2023-06-14T12:41:45;5.57;;;3.25;;
14984;SDS011;7588;62.368;25.902;2023-06-14T12:44:12;3.70;;;3.15;;
14984;SDS011;7588;62.368;25.902;2023-06-14T12:46:38;5.20;;;3.08;;
14984;SDS011;7588;62.368;25.902;2023-06-14T12:49:08;3.42;;;3.03;;
14984;SDS011;7588;62.368;25.902;2023-06-14T12:51:37;4.15;;;3.03;;
14984;SDS011;7588;62.368;25.902;2023-06-14T12:54:03;3.15;;;2.60;;
14984;SDS011;7588;62.368;25.902;2023-06-14T12:56:30;3.25;;;2.90;;
14984;SDS011;7588;62.368;25.902;2023-06-14T12:58:55;6.30;;;3.10;;
14984;SDS011;7588;62.368;25.902;2023-06-14T13:01:21;4.40;;;3.08;;
14984;SDS011;7588;62.368;25.902;2023-06-14T13:03:47;4.13;;;2.72;;
14984;SDS011;7588;62.368;25.902;2023-06-14T13:06:13;3.80;;;2.70;;
14984;SDS011;7588;62.368;25.902;2023-06-14T13:08:39;5.82;;;2.83;;
14984;SDS011;7588;62.368;25.902;2023-06-14T13:11:05;3.13;;;2.83;;
14984;SDS011;7588;62.368;25.902;2023-06-14T13:13:30;3.53;;;2.88;;
14984;SDS011;7588;62.368;25.902;2023-06-14T13:15:56;3.33;;;2.72;;
14984;SDS011;7588;62.368;25.902;2023-06-14T13:18:22;4.05;;;2.83;;
14984;SDS011;7588;62.368;25.902;2023-06-14T13:20:47;4.53;;;3.20;;
14984;SDS011;7588;62.368;25.902;2023-06-14T13:23:13;3.28;;;2.97;;
14984;SDS011;7588;62.368;25.902;2023-06-14T13:25:40;4.75;;;2.80;;
14984;SDS011;7588;62.368;25.902;2023-06-14T13:28:06;4.32;;;2.80;;
14984;SDS011;7588;62.368;25.902;2023-06-14T13:30:32;4.10;;;2.90;;
14984;SDS011;7588;62.368;25.902;2023-06-14T13:32:59;3.80;;;3.08;;
14984;SDS011;7588;62.368;25.902;2023-06-14T13:35:25;4.97;;;3.00;;
14984;SDS011;7588;62.368;25.902;2023-06-14T13:37:51;5.00;;;2.80;;
14984;SDS011;7588;62.368;25.902;2023-06-14T13:40:17;5.95;;;3.13;;
14984;SDS011;7588;62.368;25.902;2023-06-14T13:42:42;3.50;;;2.92;;
14984;SDS011;7588;62.368;25.902;2023-06-14T13:45:09;3.95;;;2.88;;
14984;SDS011;7588;62.368;25.902;2023-06-14T13:47:36;3.67;;;2.90;;
14984;SDS011;7588;62.368;25.902;2023-06-14T13:50:02;6.45;;;3.38;;
14984;SDS011;7588;62.368;25.902;2023-06-14T13:52:28;3.80;;;3.35;;
14984;SDS011;7588;62.368;25.902;2023-06-14T13:54:54;3.80;;;3.45;;
14984;SDS011;7588;62.368;25.902;2023-06-14T13:57:20;5.13;;;3.40;;
14984;SDS011;7588;62.368;25.902;2023-06-14T13:59:46;7.30;;;4.28;;
14984;SDS011;7588;62.368;25.902;2023-06-14T14:02:13;3.95;;;3.40;;
14984;SDS011;7588;62.368;25.902;2023-06-14T14:04:40;3.47;;;3.17;;
14984;SDS011;7588;62.368;25.902;2023-06-14T14:07:06;5.65;;;3.95;;
14984;SDS011;7588;62.368;25.902;2023-06-14T14:09:32;5.72;;;4.80;;
14984;SDS011;7588;62.368;25.902;2023-06-14T14:11:59;4.65;;;3.55;;
14984;SDS011;7588;62.368;25.902;2023-06-14T14:14:27;4.00;;;3.30;;
14984;SDS011;7588;62.368;25.902;2023-06-14T14:16:53;3.78;;;3.28;;
14984;SDS011;7588;62.368;25.902;2023-06-14T14:19:20;4.82;;;4.40;;
14984;SDS011;7588;62.368;25.902;2023-06-14T14:21:49;5.00;;;3.38;;
14984;SDS011;7588;62.368;25.902;2023-06-14T14:24:15;4.80;;;3.67;;
14984;SDS011;7588;62.368;25.902;2023-06-14T14:26:41;3.30;;;3.00;;
14984;SDS011;7588;62.368;25.902;2023-06-14T14:29:07;3.72;;;2.95;;
14984;SDS011;7588;62.368;25.902;2023-06-14T14:31:36;4.93;;;3.67;;
14984;SDS011;7588;62.368;25.902;2023-06-14T14:34:02;4.95;;;3.45;;
14984;SDS011;7588;62.368;25.902;2023-06-14T14:36:28;3.50;;;3.20;;
14984;SDS011;7588;62.368;25.902;2023-06-14T14:38:53;3.35;;;3.00;;
14984;SDS011;7588;62.368;25.902;2023-06-14T14:41:19;3.78;;;3.25;;
14984;SDS011;7588;62.368;25.902;2023-06-14T14:43:45;4.28;;;3.40;;
14984;SDS011;7588;62.368;25.902;2023-06-14T14:46:11;3.97;;;3.38;;
14984;SDS011;7588;62.368;25.902;2023-06-14T14:48:36;5.22;;;3.55;;
14984;SDS011;7588;62.368;25.902;2023-06-14T14:51:02;4.90;;;3.63;;
14984;SDS011;7588;62.368;25.902;2023-06-14T14:53:28;3.60;;;3.03;;
14984;SDS011;7588;62.368;25.902;2023-06-14T14:55:54;4.35;;;3.60;;
14984;SDS011;7588;62.368;25.902;2023-06-14T14:58:20;4.95;;;3.40;;
14984;SDS011;7588;62.368;25.902;2023-06-14T15:00:46;5.82;;;3.53;;
14984;SDS011;7588;62.368;25.902;2023-06-14T15:03:12;4.30;;;3.67;;
14984;SDS011;7588;62.368;25.902;2023-06-14T15:05:38;7.38;;;3.90;;
14984;SDS011;7588;62.368;25.902;2023-06-14T15:08:04;3.88;;;3.40;;
14984;SDS011;7588;62.368;25.902;2023-06-14T15:10:35;3.85;;;3.40;;
14984;SDS011;7588;62.368;25.902;2023-06-14T15:13:01;4.65;;;3.58;;